sensor_id;sensor_type;location;lat;lon;timestamp;P1;durP1;ratioP1;P2;durP2;ratioP2
55069;SDS011;40967;52.070;8.596;2022-12-07T00:00:55;11.57;;;7.70;;
55069;SDS011;40967;52.070;8.596;2022-12-07T00:03:29;9.38;;;6.28;;
55069;SDS011;40967;52.070;8.596;2022-12-07T00:05:57;9.00;;;5.70;;
55069;SDS011;40967;52.070;8.596;2022-12-07T00:08:23;9.77;;;6.00;;
55069;SDS011;40967;52.070;8.596;2022-12-07T00:10:48;9.47;;;6.07;;
55069;SDS011;40967;52.070;8.596;2022-12-07T00:13:13;8.30;;;5.40;;
55069;SDS011;40967;52.070;8.596;2022-12-07T00:15:39;9.40;;;5.80;;
55069;SDS011;40967;52.070;8.596;2022-12-07T00:18:04;10.50;;;6.57;;
55069;SDS011;40967;52.070;8.596;2022-12-07T00:20:29;9.10;;;5.73;;
55069;SDS011;40967;52.070;8.596;2022-12-07T00:22:56;12.48;;;8.35;;
55069;SDS011;40967;52.070;8.596;2022-12-07T00:25:21;11.47;;;7.47;;
55069;SDS011;40967;52.070;8.596;2022-12-07T00:27:46;12.23;;;7.77;;
55069;SDS011;40967;52.070;8.596;2022-12-07T00:30:12;13.33;;;8.90;;
55069;SDS011;40967;52.070;8.596;2022-12-07T00:32:37;10.17;;;7.20;;
55069;SDS011;40967;52.070;8.596;2022-12-07T00:35:02;11.90;;;7.37;;
55069;SDS011;40967;52.070;8.596;2022-12-07T00:37:28;11.43;;;7.43;;
55069;SDS011;40967;52.070;8.596;2022-12-07T00:39:53;14.98;;;8.90;;
55069;SDS011;40967;52.070;8.596;2022-12-07T00:42:19;10.53;;;6.60;;
55069;SDS011;40967;52.070;8.596;2022-12-07T00:44:44;15.47;;;9.30;;
55069;SDS011;40967;52.070;8.596;2022-12-07T00:47:09;10.27;;;6.23;;
55069;SDS011;40967;52.070;8.596;2022-12-07T00:49:35;10.10;;;6.20;;
55069;SDS011;40967;52.070;8.596;2022-12-07T00:52:00;9.67;;;6.13;;
55069;SDS011;40967;52.070;8.596;2022-12-07T00:54:26;8.53;;;5.23;;
55069;SDS011;40967;52.070;8.596;2022-12-07T00:56:51;9.13;;;5.07;;
55069;SDS011;40967;52.070;8.596;2022-12-07T00:59:16;7.95;;;5.13;;
55069;SDS011;40967;52.070;8.596;2022-12-07T01:01:42;9.03;;;5.37;;
55069;SDS011;40967;52.070;8.596;2022-12-07T01:04:07;8.77;;;5.57;;
55069;SDS011;40967;52.070;8.596;2022-12-07T01:06:32;10.73;;;6.97;;
55069;SDS011;40967;52.070;8.596;2022-12-07T01:08:58;10.40;;;6.50;;
55069;SDS011;40967;52.070;8.596;2022-12-07T01:11:26;15.00;;;9.40;;
55069;SDS011;40967;52.070;8.596;2022-12-07T01:13:54;11.15;;;7.03;;
55069;SDS011;40967;52.070;8.596;2022-12-07T01:16:21;10.65;;;6.82;;
55069;SDS011;40967;52.070;8.596;2022-12-07T01:18:48;11.43;;;6.80;;
55069;SDS011;40967;52.070;8.596;2022-12-07T01:21:33;10.00;;;6.47;;
55069;SDS011;40967;52.070;8.596;2022-12-07T01:24:02;9.82;;;6.50;;
55069;SDS011;40967;52.070;8.596;2022-12-07T01:26:29;9.57;;;6.00;;
55069;SDS011;40967;52.070;8.596;2022-12-07T01:28:54;10.00;;;6.35;;
55069;SDS011;40967;52.070;8.596;2022-12-07T01:31:21;13.10;;;8.13;;
55069;SDS011;40967;52.070;8.596;2022-12-07T01:33:49;10.82;;;7.35;;
55069;SDS011;40967;52.070;8.596;2022-12-07T01:38:45;17.37;;;11.97;;
55069;SDS011;40967;52.070;8.596;2022-12-07T01:41:13;13.90;;;8.45;;
55069;SDS011;40967;52.070;8.596;2022-12-07T01:46:44;11.23;;;7.22;;
55069;SDS011;40967;52.070;8.596;2022-12-07T01:49:27;10.02;;;6.10;;
55069;SDS011;40967;52.070;8.596;2022-12-07T01:52:01;10.30;;;6.50;;
55069;SDS011;40967;52.070;8.596;2022-12-07T01:54:48;10.82;;;6.50;;
55069;SDS011;40967;52.070;8.596;2022-12-07T01:57:18;10.07;;;6.20;;
55069;SDS011;40967;52.070;8.596;2022-12-07T01:59:47;10.70;;;6.78;;
55069;SDS011;40967;52.070;8.596;2022-12-07T02:02:17;9.63;;;6.20;;
55069;SDS011;40967;52.070;8.596;2022-12-07T02:04:45;8.80;;;5.70;;
55069;SDS011;40967;52.070;8.596;2022-12-07T02:07:11;8.07;;;5.22;;
55069;SDS011;40967;52.070;8.596;2022-12-07T02:09:36;14.03;;;9.27;;
55069;SDS011;40967;52.070;8.596;2022-12-07T02:12:02;10.13;;;6.68;;
55069;SDS011;40967;52.070;8.596;2022-12-07T02:14:28;9.93;;;6.55;;
55069;SDS011;40967;52.070;8.596;2022-12-07T02:30:32;7.00;;;4.27;;
55069;SDS011;40967;52.070;8.596;2022-12-07T02:33:03;7.43;;;4.60;;
55069;SDS011;40967;52.070;8.596;2022-12-07T02:38:10;6.97;;;4.33;;
55069;SDS011;40967;52.070;8.596;2022-12-07T02:43:29;7.85;;;4.60;;
55069;SDS011;40967;52.070;8.596;2022-12-07T02:46:03;6.85;;;4.18;;
55069;SDS011;40967;52.070;8.596;2022-12-07T02:48:34;6.30;;;3.78;;
55069;SDS011;40967;52.070;8.596;2022-12-07T02:51:02;7.70;;;4.70;;
55069;SDS011;40967;52.070;8.596;2022-12-07T02:53:31;8.07;;;5.07;;
55069;SDS011;40967;52.070;8.596;2022-12-07T02:56:02;9.10;;;5.00;;
55069;SDS011;40967;52.070;8.596;2022-12-07T02:58:43;7.70;;;4.75;;
55069;SDS011;40967;52.070;8.596;2022-12-07T03:10:50;4.95;;;3.10;;
55069;SDS011;40967;52.070;8.596;2022-12-07T03:18:27;5.47;;;3.25;;
55069;SDS011;40967;52.070;8.596;2022-12-07T03:20:56;5.43;;;3.10;;
55069;SDS011;40967;52.070;8.596;2022-12-07T03:23:27;5.20;;;2.78;;
55069;SDS011;40967;52.070;8.596;2022-12-07T03:25:57;4.97;;;2.93;;
55069;SDS011;40967;52.070;8.596;2022-12-07T03:28:26;5.80;;;3.55;;
55069;SDS011;40967;52.070;8.596;2022-12-07T03:33:44;6.28;;;3.95;;
55069;SDS011;40967;52.070;8.596;2022-12-07T03:36:24;6.82;;;3.25;;
55069;SDS011;40967;52.070;8.596;2022-12-07T03:39:13;6.70;;;3.47;;
55069;SDS011;40967;52.070;8.596;2022-12-07T03:41:47;5.38;;;3.38;;
55069;SDS011;40967;52.070;8.596;2022-12-07T03:44:14;6.38;;;3.63;;
55069;SDS011;40967;52.070;8.596;2022-12-07T03:52:12;7.38;;;3.63;;
55069;SDS011;40967;52.070;8.596;2022-12-07T03:57:14;6.85;;;3.70;;
55069;SDS011;40967;52.070;8.596;2022-12-07T03:59:42;11.77;;;6.50;;
55069;SDS011;40967;52.070;8.596;2022-12-07T04:02:08;8.45;;;4.50;;
55069;SDS011;40967;52.070;8.596;2022-12-07T04:04:37;7.32;;;3.97;;
55069;SDS011;40967;52.070;8.596;2022-12-07T04:07:03;5.28;;;3.40;;
55069;SDS011;40967;52.070;8.596;2022-12-07T04:09:28;6.50;;;3.70;;
55069;SDS011;40967;52.070;8.596;2022-12-07T04:11:54;5.80;;;3.20;;
55069;SDS011;40967;52.070;8.596;2022-12-07T04:14:19;5.40;;;3.00;;
55069;SDS011;40967;52.070;8.596;2022-12-07T04:16:49;5.70;;;3.27;;
55069;SDS011;40967;52.070;8.596;2022-12-07T04:19:19;7.50;;;4.82;;
55069;SDS011;40967;52.070;8.596;2022-12-07T04:21:45;8.73;;;5.03;;
55069;SDS011;40967;52.070;8.596;2022-12-07T04:24:11;6.33;;;4.00;;
55069;SDS011;40967;52.070;8.596;2022-12-07T04:26:39;5.43;;;3.30;;
55069;SDS011;40967;52.070;8.596;2022-12-07T04:29:04;5.30;;;3.00;;
55069;SDS011;40967;52.070;8.596;2022-12-07T04:31:30;7.55;;;4.32;;
55069;SDS011;40967;52.070;8.596;2022-12-07T04:33:55;8.87;;;4.90;;
55069;SDS011;40967;52.070;8.596;2022-12-07T04:36:20;8.37;;;3.80;;
55069;SDS011;40967;52.070;8.596;2022-12-07T04:38:46;8.65;;;4.28;;
55069;SDS011;40967;52.070;8.596;2022-12-07T04:41:12;7.13;;;3.93;;
55069;SDS011;40967;52.070;8.596;2022-12-07T04:43:38;7.18;;;4.25;;
55069;SDS011;40967;52.070;8.596;2022-12-07T04:46:03;6.90;;;3.57;;
55069;SDS011;40967;52.070;8.596;2022-12-07T04:48:29;8.90;;;4.87;;
55069;SDS011;40967;52.070;8.596;2022-12-07T04:50:54;9.02;;;4.90;;
55069;SDS011;40967;52.070;8.596;2022-12-07T04:53:20;15.17;;;6.10;;
55069;SDS011;40967;52.070;8.596;2022-12-07T04:55:46;6.93;;;3.83;;
55069;SDS011;40967;52.070;8.596;2022-12-07T04:58:14;8.32;;;4.60;;
55069;SDS011;40967;52.070;8.596;2022-12-07T05:00:40;9.13;;;5.25;;
55069;SDS011;40967;52.070;8.596;2022-12-07T05:03:06;9.05;;;5.13;;
55069;SDS011;40967;52.070;8.596;2022-12-07T05:05:32;15.85;;;8.40;;
55069;SDS011;40967;52.070;8.596;2022-12-07T05:07:57;14.13;;;7.40;;
55069;SDS011;40967;52.070;8.596;2022-12-07T05:10:22;16.93;;;8.27;;
55069;SDS011;40967;52.070;8.596;2022-12-07T05:12:48;11.98;;;6.70;;
55069;SDS011;40967;52.070;8.596;2022-12-07T05:15:14;11.23;;;5.70;;
55069;SDS011;40967;52.070;8.596;2022-12-07T05:17:40;12.82;;;6.45;;
55069;SDS011;40967;52.070;8.596;2022-12-07T05:20:06;10.17;;;5.20;;
55069;SDS011;40967;52.070;8.596;2022-12-07T05:22:32;8.38;;;3.90;;
55069;SDS011;40967;52.070;8.596;2022-12-07T05:24:58;6.20;;;3.47;;
55069;SDS011;40967;52.070;8.596;2022-12-07T05:27:23;8.45;;;4.45;;
55069;SDS011;40967;52.070;8.596;2022-12-07T05:29:51;8.27;;;4.60;;
55069;SDS011;40967;52.070;8.596;2022-12-07T05:32:17;10.23;;;5.93;;
55069;SDS011;40967;52.070;8.596;2022-12-07T05:34:42;7.20;;;4.07;;
55069;SDS011;40967;52.070;8.596;2022-12-07T05:37:08;7.17;;;3.60;;
55069;SDS011;40967;52.070;8.596;2022-12-07T05:39:33;8.07;;;3.70;;
55069;SDS011;40967;52.070;8.596;2022-12-07T05:41:59;5.97;;;3.60;;
55069;SDS011;40967;52.070;8.596;2022-12-07T05:44:43;9.60;;;4.70;;
55069;SDS011;40967;52.070;8.596;2022-12-07T05:47:13;7.73;;;4.30;;
55069;SDS011;40967;52.070;8.596;2022-12-07T05:49:40;6.75;;;3.95;;
55069;SDS011;40967;52.070;8.596;2022-12-07T05:52:05;7.10;;;3.80;;
55069;SDS011;40967;52.070;8.596;2022-12-07T05:54:31;6.15;;;3.30;;
55069;SDS011;40967;52.070;8.596;2022-12-07T05:56:57;6.07;;;3.07;;
55069;SDS011;40967;52.070;8.596;2022-12-07T05:59:23;6.33;;;3.40;;
55069;SDS011;40967;52.070;8.596;2022-12-07T06:01:55;8.75;;;4.05;;
55069;SDS011;40967;52.070;8.596;2022-12-07T06:04:22;7.57;;;3.95;;
55069;SDS011;40967;52.070;8.596;2022-12-07T06:06:50;7.20;;;4.15;;
55069;SDS011;40967;52.070;8.596;2022-12-07T06:09:16;7.65;;;4.00;;
55069;SDS011;40967;52.070;8.596;2022-12-07T06:11:43;8.02;;;4.03;;
55069;SDS011;40967;52.070;8.596;2022-12-07T06:14:27;8.18;;;3.92;;
55069;SDS011;40967;52.070;8.596;2022-12-07T06:16:52;6.97;;;3.60;;
55069;SDS011;40967;52.070;8.596;2022-12-07T06:19:18;6.53;;;3.53;;
55069;SDS011;40967;52.070;8.596;2022-12-07T06:21:43;8.10;;;3.67;;
55069;SDS011;40967;52.070;8.596;2022-12-07T06:24:10;5.55;;;3.20;;
55069;SDS011;40967;52.070;8.596;2022-12-07T06:26:38;6.57;;;3.83;;
55069;SDS011;40967;52.070;8.596;2022-12-07T06:29:04;5.63;;;3.05;;
55069;SDS011;40967;52.070;8.596;2022-12-07T06:31:30;7.17;;;3.23;;
55069;SDS011;40967;52.070;8.596;2022-12-07T06:33:59;6.03;;;3.10;;
55069;SDS011;40967;52.070;8.596;2022-12-07T06:36:25;5.35;;;3.08;;
55069;SDS011;40967;52.070;8.596;2022-12-07T06:38:51;9.52;;;4.70;;
55069;SDS011;40967;52.070;8.596;2022-12-07T06:41:17;9.55;;;4.38;;
55069;SDS011;40967;52.070;8.596;2022-12-07T06:43:42;9.37;;;4.77;;
55069;SDS011;40967;52.070;8.596;2022-12-07T06:46:08;6.93;;;3.77;;
55069;SDS011;40967;52.070;8.596;2022-12-07T06:48:33;11.47;;;5.83;;
55069;SDS011;40967;52.070;8.596;2022-12-07T06:50:58;7.97;;;4.30;;
55069;SDS011;40967;52.070;8.596;2022-12-07T06:53:24;10.52;;;4.65;;
55069;SDS011;40967;52.070;8.596;2022-12-07T06:55:49;6.07;;;3.80;;
55069;SDS011;40967;52.070;8.596;2022-12-07T06:58:15;8.02;;;4.22;;
55069;SDS011;40967;52.070;8.596;2022-12-07T07:00:40;9.50;;;4.47;;
55069;SDS011;40967;52.070;8.596;2022-12-07T07:03:06;8.20;;;3.70;;
55069;SDS011;40967;52.070;8.596;2022-12-07T07:05:31;8.50;;;4.22;;
55069;SDS011;40967;52.070;8.596;2022-12-07T07:07:57;8.20;;;3.93;;
55069;SDS011;40967;52.070;8.596;2022-12-07T07:10:22;5.83;;;3.40;;
55069;SDS011;40967;52.070;8.596;2022-12-07T07:12:47;6.20;;;3.00;;
55069;SDS011;40967;52.070;8.596;2022-12-07T07:15:13;7.50;;;3.60;;
55069;SDS011;40967;52.070;8.596;2022-12-07T07:17:38;6.07;;;3.10;;
55069;SDS011;40967;52.070;8.596;2022-12-07T07:20:04;7.40;;;3.97;;
55069;SDS011;40967;52.070;8.596;2022-12-07T07:22:30;6.32;;;3.58;;
55069;SDS011;40967;52.070;8.596;2022-12-07T07:24:55;7.27;;;3.37;;
55069;SDS011;40967;52.070;8.596;2022-12-07T07:27:20;7.83;;;4.10;;
55069;SDS011;40967;52.070;8.596;2022-12-07T07:29:49;6.63;;;3.00;;
55069;SDS011;40967;52.070;8.596;2022-12-07T07:32:14;9.05;;;4.53;;
55069;SDS011;40967;52.070;8.596;2022-12-07T07:34:40;6.13;;;3.40;;
55069;SDS011;40967;52.070;8.596;2022-12-07T07:37:05;5.97;;;2.80;;
55069;SDS011;40967;52.070;8.596;2022-12-07T07:39:30;5.70;;;3.10;;
55069;SDS011;40967;52.070;8.596;2022-12-07T07:41:56;7.70;;;3.80;;
55069;SDS011;40967;52.070;8.596;2022-12-07T07:44:21;6.63;;;3.37;;
55069;SDS011;40967;52.070;8.596;2022-12-07T07:46:46;8.38;;;4.38;;
55069;SDS011;40967;52.070;8.596;2022-12-07T07:49:12;7.47;;;3.50;;
55069;SDS011;40967;52.070;8.596;2022-12-07T07:51:37;8.23;;;3.97;;
55069;SDS011;40967;52.070;8.596;2022-12-07T07:54:03;7.25;;;3.40;;
55069;SDS011;40967;52.070;8.596;2022-12-07T07:56:28;5.80;;;3.00;;
55069;SDS011;40967;52.070;8.596;2022-12-07T07:58:54;7.50;;;3.37;;
55069;SDS011;40967;52.070;8.596;2022-12-07T08:01:19;6.30;;;3.33;;
55069;SDS011;40967;52.070;8.596;2022-12-07T08:03:47;6.32;;;2.85;;
55069;SDS011;40967;52.070;8.596;2022-12-07T08:06:13;6.57;;;3.58;;
55069;SDS011;40967;52.070;8.596;2022-12-07T08:08:38;5.27;;;2.90;;
55069;SDS011;40967;52.070;8.596;2022-12-07T08:11:07;6.20;;;2.70;;
55069;SDS011;40967;52.070;8.596;2022-12-07T08:13:34;7.05;;;3.15;;
55069;SDS011;40967;52.070;8.596;2022-12-07T08:16:03;7.20;;;3.30;;
55069;SDS011;40967;52.070;8.596;2022-12-07T08:18:29;5.05;;;2.53;;
55069;SDS011;40967;52.070;8.596;2022-12-07T08:20:58;6.63;;;3.40;;
55069;SDS011;40967;52.070;8.596;2022-12-07T08:23:27;5.28;;;2.40;;
55069;SDS011;40967;52.070;8.596;2022-12-07T08:25:52;8.30;;;3.40;;
55069;SDS011;40967;52.070;8.596;2022-12-07T08:28:18;6.57;;;3.33;;
55069;SDS011;40967;52.070;8.596;2022-12-07T08:30:43;6.17;;;3.17;;
55069;SDS011;40967;52.070;8.596;2022-12-07T08:33:09;10.73;;;4.18;;
55069;SDS011;40967;52.070;8.596;2022-12-07T08:35:35;14.43;;;5.80;;
55069;SDS011;40967;52.070;8.596;2022-12-07T08:38:00;8.47;;;4.37;;
55069;SDS011;40967;52.070;8.596;2022-12-07T08:40:27;7.88;;;3.70;;
55069;SDS011;40967;52.070;8.596;2022-12-07T08:42:52;9.20;;;4.10;;
55069;SDS011;40967;52.070;8.596;2022-12-07T08:45:18;5.80;;;3.30;;
55069;SDS011;40967;52.070;8.596;2022-12-07T08:47:46;7.78;;;3.08;;
55069;SDS011;40967;52.070;8.596;2022-12-07T08:50:16;7.05;;;3.13;;
55069;SDS011;40967;52.070;8.596;2022-12-07T08:52:42;7.20;;;2.95;;
55069;SDS011;40967;52.070;8.596;2022-12-07T08:55:09;5.70;;;2.50;;
55069;SDS011;40967;52.070;8.596;2022-12-07T08:57:36;6.63;;;2.70;;
55069;SDS011;40967;52.070;8.596;2022-12-07T09:00:03;7.50;;;3.37;;
55069;SDS011;40967;52.070;8.596;2022-12-07T09:02:30;5.18;;;2.60;;
55069;SDS011;40967;52.070;8.596;2022-12-07T09:04:56;6.72;;;3.20;;
55069;SDS011;40967;52.070;8.596;2022-12-07T09:07:21;8.17;;;3.63;;
55069;SDS011;40967;52.070;8.596;2022-12-07T09:09:47;8.50;;;3.50;;
55069;SDS011;40967;52.070;8.596;2022-12-07T09:12:12;10.02;;;4.70;;
55069;SDS011;40967;52.070;8.596;2022-12-07T09:14:38;8.97;;;4.17;;
55069;SDS011;40967;52.070;8.596;2022-12-07T09:17:07;10.30;;;4.17;;
55069;SDS011;40967;52.070;8.596;2022-12-07T09:19:38;10.75;;;4.00;;
55069;SDS011;40967;52.070;8.596;2022-12-07T09:22:03;7.85;;;3.33;;
55069;SDS011;40967;52.070;8.596;2022-12-07T09:24:30;6.53;;;3.17;;
55069;SDS011;40967;52.070;8.596;2022-12-07T09:26:56;6.17;;;2.90;;
55069;SDS011;40967;52.070;8.596;2022-12-07T09:29:22;5.10;;;2.30;;
55069;SDS011;40967;52.070;8.596;2022-12-07T09:31:47;6.63;;;2.70;;
55069;SDS011;40967;52.070;8.596;2022-12-07T09:34:12;5.17;;;2.10;;
55069;SDS011;40967;52.070;8.596;2022-12-07T09:36:38;8.87;;;2.90;;
55069;SDS011;40967;52.070;8.596;2022-12-07T09:39:03;5.27;;;2.23;;
55069;SDS011;40967;52.070;8.596;2022-12-07T09:41:30;7.07;;;2.78;;
55069;SDS011;40967;52.070;8.596;2022-12-07T09:44:06;9.25;;;3.83;;
55069;SDS011;40967;52.070;8.596;2022-12-07T09:46:36;6.35;;;2.58;;
55069;SDS011;40967;52.070;8.596;2022-12-07T09:49:05;5.93;;;2.38;;
55069;SDS011;40967;52.070;8.596;2022-12-07T09:51:37;6.20;;;2.80;;
55069;SDS011;40967;52.070;8.596;2022-12-07T09:54:02;5.33;;;2.23;;
55069;SDS011;40967;52.070;8.596;2022-12-07T09:56:29;7.63;;;2.73;;
55069;SDS011;40967;52.070;8.596;2022-12-07T09:58:58;9.38;;;3.03;;
55069;SDS011;40967;52.070;8.596;2022-12-07T10:01:27;7.65;;;2.58;;
55069;SDS011;40967;52.070;8.596;2022-12-07T10:03:55;4.78;;;2.10;;
55069;SDS011;40967;52.070;8.596;2022-12-07T10:06:26;6.40;;;2.17;;
55069;SDS011;40967;52.070;8.596;2022-12-07T10:08:52;5.13;;;2.13;;
55069;SDS011;40967;52.070;8.596;2022-12-07T10:11:17;6.57;;;2.33;;
55069;SDS011;40967;52.070;8.596;2022-12-07T10:13:52;7.20;;;2.53;;
55069;SDS011;40967;52.070;8.596;2022-12-07T10:18:50;4.45;;;1.83;;
55069;SDS011;40967;52.070;8.596;2022-12-07T10:21:17;4.05;;;1.63;;
55069;SDS011;40967;52.070;8.596;2022-12-07T10:29:00;5.18;;;2.30;;
55069;SDS011;40967;52.070;8.596;2022-12-07T10:31:38;4.82;;;1.98;;
55069;SDS011;40967;52.070;8.596;2022-12-07T10:34:12;4.22;;;1.80;;
55069;SDS011;40967;52.070;8.596;2022-12-07T10:36:52;8.50;;;2.80;;
55069;SDS011;40967;52.070;8.596;2022-12-07T10:39:22;7.90;;;2.40;;
55069;SDS011;40967;52.070;8.596;2022-12-07T10:41:55;6.32;;;2.20;;
55069;SDS011;40967;52.070;8.596;2022-12-07T10:44:32;8.88;;;2.80;;
55069;SDS011;40967;52.070;8.596;2022-12-07T11:00:19;4.30;;;1.60;;
55069;SDS011;40967;52.070;8.596;2022-12-07T11:08:21;6.22;;;2.60;;
55069;SDS011;40967;52.070;8.596;2022-12-07T11:11:08;7.47;;;2.30;;
55069;SDS011;40967;52.070;8.596;2022-12-07T11:22:08;4.88;;;1.70;;
55069;SDS011;40967;52.070;8.596;2022-12-07T11:27:34;4.95;;;1.92;;
55069;SDS011;40967;52.070;8.596;2022-12-07T11:38:26;5.78;;;1.58;;
55069;SDS011;40967;52.070;8.596;2022-12-07T11:40:58;6.27;;;1.53;;
55069;SDS011;40967;52.070;8.596;2022-12-07T11:43:37;5.50;;;1.50;;
55069;SDS011;40967;52.070;8.596;2022-12-07T11:46:15;7.10;;;1.63;;
55069;SDS011;40967;52.070;8.596;2022-12-07T11:48:43;5.10;;;1.40;;
55069;SDS011;40967;52.070;8.596;2022-12-07T11:51:14;7.60;;;1.53;;
55069;SDS011;40967;52.070;8.596;2022-12-07T11:53:45;4.65;;;1.40;;
55069;SDS011;40967;52.070;8.596;2022-12-07T11:56:23;6.50;;;1.92;;
55069;SDS011;40967;52.070;8.596;2022-12-07T11:58:55;8.07;;;2.20;;
55069;SDS011;40967;52.070;8.596;2022-12-07T12:06:33;5.97;;;1.70;;
55069;SDS011;40967;52.070;8.596;2022-12-07T12:09:12;5.57;;;1.67;;
55069;SDS011;40967;52.070;8.596;2022-12-07T12:18:05;5.05;;;1.67;;
55069;SDS011;40967;52.070;8.596;2022-12-07T12:23:20;4.15;;;1.20;;
55069;SDS011;40967;52.070;8.596;2022-12-07T12:25:58;7.18;;;2.03;;
55069;SDS011;40967;52.070;8.596;2022-12-07T12:33:46;6.25;;;1.40;;
55069;SDS011;40967;52.070;8.596;2022-12-07T12:47:00;7.68;;;1.52;;
55069;SDS011;40967;52.070;8.596;2022-12-07T12:54:57;4.40;;;1.17;;
55069;SDS011;40967;52.070;8.596;2022-12-07T12:57:31;4.40;;;1.23;;
55069;SDS011;40967;52.070;8.596;2022-12-07T13:02:38;5.28;;;1.33;;
55069;SDS011;40967;52.070;8.596;2022-12-07T13:05:22;4.45;;;1.23;;
55069;SDS011;40967;52.070;8.596;2022-12-07T13:07:51;2.95;;;0.90;;
55069;SDS011;40967;52.070;8.596;2022-12-07T13:18:04;6.63;;;1.50;;
55069;SDS011;40967;52.070;8.596;2022-12-07T13:23:13;3.70;;;0.90;;
55069;SDS011;40967;52.070;8.596;2022-12-07T13:25:49;4.38;;;1.20;;
55069;SDS011;40967;52.070;8.596;2022-12-07T13:28:19;4.50;;;1.20;;
55069;SDS011;40967;52.070;8.596;2022-12-07T13:30:50;5.13;;;1.20;;
55069;SDS011;40967;52.070;8.596;2022-12-07T13:33:29;3.17;;;1.10;;
55069;SDS011;40967;52.070;8.596;2022-12-07T13:35:55;2.97;;;0.93;;
55069;SDS011;40967;52.070;8.596;2022-12-07T13:38:32;3.03;;;1.02;;
55069;SDS011;40967;52.070;8.596;2022-12-07T13:41:21;4.18;;;1.00;;
55069;SDS011;40967;52.070;8.596;2022-12-07T13:43:54;3.08;;;1.05;;
55069;SDS011;40967;52.070;8.596;2022-12-07T13:46:32;6.03;;;1.83;;
55069;SDS011;40967;52.070;8.596;2022-12-07T13:49:31;5.60;;;1.65;;
55069;SDS011;40967;52.070;8.596;2022-12-07T13:55:29;8.38;;;2.13;;
55069;SDS011;40967;52.070;8.596;2022-12-07T13:57:29;5.43;;;1.55;;
55069;SDS011;40967;52.070;8.596;2022-12-07T13:59:56;7.93;;;2.00;;
55069;SDS011;40967;52.070;8.596;2022-12-07T14:02:30;4.43;;;1.55;;
55069;SDS011;40967;52.070;8.596;2022-12-07T14:05:12;6.00;;;1.53;;
55069;SDS011;40967;52.070;8.596;2022-12-07T14:07:53;4.97;;;1.52;;
55069;SDS011;40967;52.070;8.596;2022-12-07T14:10:39;5.30;;;2.10;;
55069;SDS011;40967;52.070;8.596;2022-12-07T14:15:50;4.25;;;1.80;;
55069;SDS011;40967;52.070;8.596;2022-12-07T14:18:30;5.15;;;1.85;;
55069;SDS011;40967;52.070;8.596;2022-12-07T14:21:05;4.00;;;1.30;;
55069;SDS011;40967;52.070;8.596;2022-12-07T14:24:11;6.30;;;1.60;;
55069;SDS011;40967;52.070;8.596;2022-12-07T14:26:40;3.55;;;1.40;;
55069;SDS011;40967;52.070;8.596;2022-12-07T14:29:39;3.08;;;1.23;;
55069;SDS011;40967;52.070;8.596;2022-12-07T14:32:04;2.95;;;1.17;;
55069;SDS011;40967;52.070;8.596;2022-12-07T14:34:56;4.73;;;1.67;;
55069;SDS011;40967;52.070;8.596;2022-12-07T14:37:23;6.18;;;1.45;;
55069;SDS011;40967;52.070;8.596;2022-12-07T14:39:49;3.38;;;1.20;;
55069;SDS011;40967;52.070;8.596;2022-12-07T14:42:14;3.33;;;1.07;;
55069;SDS011;40967;52.070;8.596;2022-12-07T14:44:40;4.60;;;1.00;;
55069;SDS011;40967;52.070;8.596;2022-12-07T14:47:07;2.95;;;0.95;;
55069;SDS011;40967;52.070;8.596;2022-12-07T14:49:35;3.20;;;0.80;;
55069;SDS011;40967;52.070;8.596;2022-12-07T14:52:00;4.83;;;0.93;;
55069;SDS011;40967;52.070;8.596;2022-12-07T14:54:25;2.47;;;0.90;;
55069;SDS011;40967;52.070;8.596;2022-12-07T14:56:55;2.10;;;0.68;;
55069;SDS011;40967;52.070;8.596;2022-12-07T14:59:21;2.53;;;0.77;;
55069;SDS011;40967;52.070;8.596;2022-12-07T15:01:46;2.85;;;0.80;;
55069;SDS011;40967;52.070;8.596;2022-12-07T15:04:12;3.53;;;1.00;;
55069;SDS011;40967;52.070;8.596;2022-12-07T15:06:37;2.78;;;0.60;;
55069;SDS011;40967;52.070;8.596;2022-12-07T15:09:03;2.65;;;0.70;;
55069;SDS011;40967;52.070;8.596;2022-12-07T15:11:29;2.20;;;0.80;;
55069;SDS011;40967;52.070;8.596;2022-12-07T15:13:54;1.67;;;0.70;;
55069;SDS011;40967;52.070;8.596;2022-12-07T15:16:39;2.90;;;0.80;;
55069;SDS011;40967;52.070;8.596;2022-12-07T15:19:13;4.40;;;1.13;;
55069;SDS011;40967;52.070;8.596;2022-12-07T15:21:42;2.50;;;0.80;;
55069;SDS011;40967;52.070;8.596;2022-12-07T15:24:09;4.50;;;1.05;;
55069;SDS011;40967;52.070;8.596;2022-12-07T15:26:36;1.97;;;0.80;;
55069;SDS011;40967;52.070;8.596;2022-12-07T15:29:02;5.70;;;1.52;;
55069;SDS011;40967;52.070;8.596;2022-12-07T15:31:28;7.47;;;2.33;;
55069;SDS011;40967;52.070;8.596;2022-12-07T15:33:53;6.87;;;2.20;;
55069;SDS011;40967;52.070;8.596;2022-12-07T15:36:22;5.05;;;1.90;;
55069;SDS011;40967;52.070;8.596;2022-12-07T15:38:50;4.47;;;1.63;;
55069;SDS011;40967;52.070;8.596;2022-12-07T15:41:16;5.15;;;1.77;;
55069;SDS011;40967;52.070;8.596;2022-12-07T15:43:41;7.27;;;1.83;;
55069;SDS011;40967;52.070;8.596;2022-12-07T15:46:29;4.05;;;1.58;;
55069;SDS011;40967;52.070;8.596;2022-12-07T15:48:58;5.30;;;1.50;;
55069;SDS011;40967;52.070;8.596;2022-12-07T15:51:24;4.97;;;1.50;;
55069;SDS011;40967;52.070;8.596;2022-12-07T15:53:53;5.60;;;1.52;;
55069;SDS011;40967;52.070;8.596;2022-12-07T15:56:20;4.85;;;1.20;;
55069;SDS011;40967;52.070;8.596;2022-12-07T15:58:45;3.60;;;1.17;;
55069;SDS011;40967;52.070;8.596;2022-12-07T16:01:12;3.40;;;1.30;;
55069;SDS011;40967;52.070;8.596;2022-12-07T16:03:38;6.63;;;1.63;;
55069;SDS011;40967;52.070;8.596;2022-12-07T16:06:04;5.40;;;1.20;;
55069;SDS011;40967;52.070;8.596;2022-12-07T16:08:29;3.40;;;1.00;;
55069;SDS011;40967;52.070;8.596;2022-12-07T16:10:55;2.40;;;0.70;;
55069;SDS011;40967;52.070;8.596;2022-12-07T16:13:21;1.80;;;0.80;;
55069;SDS011;40967;52.070;8.596;2022-12-07T16:15:47;2.47;;;0.80;;
55069;SDS011;40967;52.070;8.596;2022-12-07T16:18:13;0.50;;;0.50;;
55069;SDS011;40967;52.070;8.596;2022-12-07T16:20:38;1.27;;;0.60;;
55069;SDS011;40967;52.070;8.596;2022-12-07T16:23:04;0.88;;;0.47;;
55069;SDS011;40967;52.070;8.596;2022-12-07T16:25:30;2.00;;;0.70;;
55069;SDS011;40967;52.070;8.596;2022-12-07T16:27:55;1.80;;;0.60;;
55069;SDS011;40967;52.070;8.596;2022-12-07T16:30:21;2.20;;;0.70;;
55069;SDS011;40967;52.070;8.596;2022-12-07T16:32:46;1.33;;;0.60;;
55069;SDS011;40967;52.070;8.596;2022-12-07T16:35:12;1.23;;;0.60;;
55069;SDS011;40967;52.070;8.596;2022-12-07T16:37:38;0.90;;;0.50;;
55069;SDS011;40967;52.070;8.596;2022-12-07T16:40:04;0.80;;;0.50;;
55069;SDS011;40967;52.070;8.596;2022-12-07T16:42:31;1.20;;;0.70;;
55069;SDS011;40967;52.070;8.596;2022-12-07T16:44:58;1.08;;;0.60;;
55069;SDS011;40967;52.070;8.596;2022-12-07T16:47:23;0.80;;;0.50;;
55069;SDS011;40967;52.070;8.596;2022-12-07T16:49:48;1.40;;;0.40;;
55069;SDS011;40967;52.070;8.596;2022-12-07T16:52:14;1.10;;;0.50;;
55069;SDS011;40967;52.070;8.596;2022-12-07T16:54:39;0.90;;;0.40;;
55069;SDS011;40967;52.070;8.596;2022-12-07T16:57:05;1.20;;;0.40;;
55069;SDS011;40967;52.070;8.596;2022-12-07T16:59:30;1.13;;;0.70;;
55069;SDS011;40967;52.070;8.596;2022-12-07T17:01:56;0.70;;;0.40;;
55069;SDS011;40967;52.070;8.596;2022-12-07T17:04:22;1.23;;;0.43;;
55069;SDS011;40967;52.070;8.596;2022-12-07T17:06:47;0.70;;;0.50;;
55069;SDS011;40967;52.070;8.596;2022-12-07T17:09:12;1.53;;;0.50;;
55069;SDS011;40967;52.070;8.596;2022-12-07T17:11:38;0.60;;;0.47;;
55069;SDS011;40967;52.070;8.596;2022-12-07T17:14:03;0.30;;;0.30;;
55069;SDS011;40967;52.070;8.596;2022-12-07T17:16:48;1.08;;;0.50;;
55069;SDS011;40967;52.070;8.596;2022-12-07T17:19:14;1.80;;;0.60;;
55069;SDS011;40967;52.070;8.596;2022-12-07T17:21:41;0.93;;;0.50;;
55069;SDS011;40967;52.070;8.596;2022-12-07T17:24:08;1.45;;;0.60;;